Marmirolo, Italy

11:55 PM CEST am 28. April 2017 (GMT +0200)
Porto Mantovano | | Change Station

Höhe 0 ft 45.19 °N, 10.79 °E | Updated 2 minutes ago

Heiter
Heiter
52.2 °F
gefühlte 52.2 °F
N
0.6
Wind Wechselnd Wind aus Süd-Südwest
Gusts 1.9 mph

Heute
Max. -- | schwach -- °F
--% Regenrisiko
Gestern
Max. -- | schwach -- °F
Precip. -- inch
Druck 29.89 inch
Sichtweite -9999.0 Meilen
Wolken
Taupunkt 40 °F
Feuchtigkeit 64%
Regen 0.02 inch
Schneehöhe Nicht verfügbar..
6:10 AM 8:19 PM
Erstes Viertel, 9% visible
METAR LIPX 282120Z 36007KT CAVOK 07/03 Q1012
Druck 29.89 inch
Sichtweite -9999.0 Meilen
Wolken
Taupunkt 40 °F
Feuchtigkeit 64%
Regen 0.02 inch
Schneehöhe Nicht verfügbar..
6:10 AM 8:19 PM
Erstes Viertel, 9% visible
METAR LIPX 282120Z 36007KT CAVOK 07/03 Q1012

Get Severe Weather Alerts

Thanks for signing up!

Be on the lookout for a verification email in your inbox.

You'll start receiving the daily forecast at 8 AM.

×

10-Day Weather Forecast

×

Almanac

Astronomie

Apr. 28, 2017 Aufgang Untergang
Genaue Zeit
Bürgerliche Dämmerung
Nautische Dämmerung
Astronomische Dämmerung
Mond
Länge des sichtbaren Lichts
Tageslänge
Tomorrow will be .
, % of the Moon is Illuminated

Heutige Rekorde

Country Highs Country Lows

Community

WunderPhotos

WunderBlog® & News

Nearby

Luftqualität

  Luftqualität LQ Index Schadstoff
Not available.

Schneehöhe

Station Depth Höhe

Erdbebenaktivität

Stadt Distance Mag. Time & Date
Minimum magnitude displayed is 2.5.

küstennahe Wassertemperaturen

Ort Temperatur

Stations

Wetterstationen in der Umgebung

Stationsstandort Temp. Windchill Taupunkt Feuchtigkeit Wind Precip. Höhe Aktualisiert Art